createdAt,value
2022-11-14T00:01:39.663Z,9.13
2022-11-14T00:03:42.294Z,8.45
2022-11-14T00:05:46.900Z,8.85
2022-11-14T00:07:49.497Z,9.35
2022-11-14T00:09:52.286Z,9.18
2022-11-14T00:11:55.038Z,9.20
2022-11-14T00:13:57.623Z,9.07
2022-11-14T00:16:00.318Z,9.65
2022-11-14T00:18:04.484Z,9.38
2022-11-14T00:20:09.482Z,10.32
2022-11-14T00:22:12.078Z,10.07
2022-11-14T00:24:14.664Z,9.15
2022-11-14T00:26:17.297Z,9.07
2022-11-14T00:28:19.919Z,9.75
2022-11-14T00:30:22.594Z,8.57
2022-11-14T00:32:25.216Z,10.07
2022-11-14T00:34:29.198Z,10.15
2022-11-14T00:36:31.811Z,10.18
2022-11-14T00:38:34.443Z,10.05
2022-11-14T00:40:37.114Z,10.40
2022-11-14T00:42:39.765Z,11.02
2022-11-14T00:44:42.393Z,10.82
2022-11-14T00:46:45.112Z,10.85
2022-11-14T00:48:47.735Z,9.80
2022-11-14T00:50:51.685Z,10.35
2022-11-14T00:52:54.335Z,9.55
2022-11-14T00:54:56.983Z,9.30
2022-11-14T00:56:59.672Z,9.55
2022-11-14T00:59:02.268Z,10.18
2022-11-14T01:01:05.173Z,9.35
2022-11-14T01:03:07.802Z,9.68
2022-11-14T01:05:10.670Z,9.30
2022-11-14T01:07:14.719Z,8.88
2022-11-14T01:09:17.444Z,8.88
2022-11-14T01:11:22.440Z,8.95
2022-11-14T01:13:25.097Z,9.70
2022-11-14T01:15:27.742Z,8.68
2022-11-14T01:17:30.409Z,8.90
2022-11-14T01:19:33.197Z,9.10
2022-11-14T01:21:35.847Z,9.40
2022-11-14T01:23:40.733Z,9.00
2022-11-14T01:25:44.028Z,9.52
2022-11-14T01:27:46.622Z,8.88
2022-11-14T01:29:49.485Z,9.18
2022-11-14T01:31:52.058Z,9.05
2022-11-14T01:33:55.357Z,9.73
2022-11-14T01:36:00.435Z,9.68
2022-11-14T01:38:03.339Z,8.35
2022-11-14T01:40:08.769Z,9.18
2022-11-14T01:42:11.491Z,8.70
2022-11-14T01:44:16.084Z,8.27
2022-11-14T01:46:22.877Z,8.27
2022-11-14T01:48:32.173Z,8.45
2022-11-14T01:50:35.031Z,8.55
2022-11-14T01:52:40.295Z,8.63
2022-11-14T01:54:46.834Z,8.35
2022-11-14T01:56:55.908Z,7.78
2022-11-14T01:59:04.282Z,7.72
2022-11-14T02:01:07.444Z,8.80
2022-11-14T02:03:10.795Z,7.70
2022-11-14T02:05:17.391Z,7.78
2022-11-14T02:07:20.675Z,7.45
2022-11-14T02:09:24.017Z,8.65
2022-11-14T02:11:31.542Z,9.25
2022-11-14T02:13:35.514Z,8.75
2022-11-14T02:15:38.747Z,9.80
2022-11-14T02:17:41.824Z,8.52
2022-11-14T02:19:46.318Z,9.55
2022-11-14T02:21:50.387Z,10.40
2022-11-14T02:23:53.068Z,9.00
2022-11-14T02:25:56.151Z,9.35
2022-11-14T02:28:01.047Z,9.93
2022-11-14T02:30:05.956Z,12.00
2022-11-14T02:32:10.820Z,10.57
2022-11-14T02:34:16.802Z,10.45
2022-11-14T02:36:19.509Z,12.48
2022-11-14T02:38:23.589Z,12.73
2022-11-14T02:40:26.243Z,12.88
2022-11-14T02:42:28.863Z,13.85
2022-11-14T02:44:31.682Z,11.43
2022-11-14T02:46:34.424Z,15.90
2022-11-14T02:48:37.040Z,15.20
2022-11-14T02:50:39.705Z,14.57
2022-11-14T02:52:42.332Z,17.02
2022-11-14T02:54:49.218Z,14.02
2022-11-14T02:56:55.949Z,14.13
2022-11-14T02:58:58.580Z,12.25
2022-11-14T03:01:19.575Z,11.93
2022-11-14T03:03:22.694Z,11.57
2022-11-14T03:05:25.834Z,12.45
2022-11-14T03:07:28.502Z,12.38
2022-11-14T03:09:31.249Z,15.60
2022-11-14T03:11:35.208Z,13.73
2022-11-14T03:13:38.149Z,14.50
2022-11-14T03:15:40.867Z,12.77
2022-11-14T03:17:43.483Z,13.35
2022-11-14T03:19:46.110Z,13.15
2022-11-14T03:21:48.695Z,11.68
2022-11-14T03:23:51.477Z,12.50
2022-11-14T03:25:54.081Z,12.65
2022-11-14T03:27:58.065Z,13.05
2022-11-14T03:30:00.748Z,12.57
2022-11-14T03:32:03.559Z,11.98
2022-11-14T03:34:06.212Z,11.80
2022-11-14T03:36:09.353Z,11.75
2022-11-14T03:38:12.055Z,11.52
2022-11-14T03:40:14.864Z,9.93
2022-11-14T03:42:17.509Z,11.27
2022-11-14T03:44:21.509Z,10.68
2022-11-14T03:46:24.150Z,11.20
2022-11-14T03:48:27.216Z,10.82
2022-11-14T03:50:30.068Z,10.85
2022-11-14T03:52:32.820Z,12.55
2022-11-14T03:54:35.503Z,11.18
2022-11-14T03:56:38.187Z,12.02
2022-11-14T03:58:40.787Z,13.45
2022-11-14T04:00:45.007Z,10.18
2022-11-14T04:02:47.842Z,9.43
2022-11-14T04:04:50.483Z,9.90
2022-11-14T04:06:53.175Z,11.38
2022-11-14T04:08:56.643Z,11.55
2022-11-14T04:10:59.428Z,12.38
2022-11-14T04:13:02.060Z,10.30
2022-11-14T04:15:05.383Z,11.45
2022-11-14T04:17:09.408Z,10.15
2022-11-14T04:19:12.003Z,9.95
2022-11-14T04:21:14.692Z,11.27
2022-11-14T04:23:17.308Z,12.13
2022-11-14T04:25:19.961Z,12.25
2022-11-14T04:27:22.632Z,10.85
2022-11-14T04:29:25.290Z,9.98
2022-11-14T04:31:27.900Z,9.70
2022-11-14T04:33:31.988Z,9.52
2022-11-14T04:35:34.574Z,10.13
2022-11-14T04:37:38.623Z,9.77
2022-11-14T04:39:41.224Z,8.82
2022-11-14T04:41:43.837Z,9.15
2022-11-14T04:43:50.939Z,8.63
2022-11-14T04:45:53.790Z,7.90
2022-11-14T04:47:56.470Z,8.93
2022-11-14T04:50:00.456Z,8.80
2022-11-14T04:52:03.060Z,9.57
2022-11-14T04:54:06.143Z,8.15
2022-11-14T04:56:09.410Z,9.35
2022-11-14T04:58:12.027Z,7.82
2022-11-14T05:00:16.056Z,9.32
2022-11-14T05:02:18.646Z,9.23
2022-11-14T05:04:21.254Z,8.25
2022-11-14T05:06:25.213Z,8.43
2022-11-14T05:08:28.334Z,8.63
2022-11-14T05:10:31.205Z,8.65
2022-11-14T05:12:33.947Z,7.38
2022-11-14T05:14:36.950Z,7.30
2022-11-14T05:16:39.579Z,6.32
2022-11-14T05:18:46.910Z,7.15
2022-11-14T05:20:49.847Z,8.57
2022-11-14T05:22:56.212Z,6.68
2022-11-14T05:24:58.804Z,7.20
2022-11-14T05:27:01.414Z,7.43
2022-11-14T05:29:04.381Z,7.22
2022-11-14T05:31:08.714Z,6.90
2022-11-14T05:33:11.347Z,7.75
2022-11-14T05:35:14.087Z,7.60
2022-11-14T05:37:16.954Z,8.30
2022-11-14T05:39:20.987Z,8.23
2022-11-14T05:41:23.678Z,8.65
2022-11-14T05:43:27.174Z,8.38
2022-11-14T05:45:29.769Z,7.82
2022-11-14T05:47:32.468Z,7.60
2022-11-14T05:49:35.062Z,7.13
2022-11-14T05:51:37.697Z,7.25
2022-11-14T05:53:40.932Z,9.10
2022-11-14T05:55:44.892Z,7.75
2022-11-14T05:57:47.525Z,8.48
2022-11-14T05:59:50.150Z,8.40
2022-11-14T06:01:52.979Z,8.88
2022-11-14T06:03:55.753Z,7.38
2022-11-14T06:06:00.384Z,7.30
2022-11-14T06:08:03.927Z,8.75
2022-11-14T06:10:07.295Z,7.53
2022-11-14T06:12:11.288Z,7.47
2022-11-14T06:14:14.107Z,8.23
2022-11-14T06:16:18.244Z,7.75
2022-11-14T06:18:20.856Z,7.38
2022-11-14T06:20:23.470Z,8.13
2022-11-14T06:22:26.180Z,8.48
2022-11-14T06:24:28.778Z,7.55
2022-11-14T06:26:32.623Z,8.07
2022-11-14T06:28:36.720Z,7.70
2022-11-14T06:30:41.426Z,7.50
2022-11-14T06:32:44.026Z,7.30
2022-11-14T06:34:46.746Z,7.40
2022-11-14T06:36:49.341Z,6.68
2022-11-14T06:38:51.954Z,6.35
2022-11-14T06:41:01.997Z,6.97
2022-11-14T06:43:04.626Z,6.95
2022-11-14T06:45:09.769Z,6.97
2022-11-14T06:47:12.405Z,6.85
2022-11-14T06:49:15.027Z,6.30
2022-11-14T06:51:18.492Z,6.32
2022-11-14T06:53:21.237Z,6.72
2022-11-14T06:55:25.493Z,5.80
2022-11-14T06:57:28.329Z,6.38
2022-11-14T06:59:31.740Z,6.75
2022-11-14T07:01:35.766Z,6.68
2022-11-14T07:03:38.837Z,6.57
2022-11-14T07:05:42.073Z,5.75
2022-11-14T07:07:45.075Z,5.63
2022-11-14T07:09:47.718Z,5.78
2022-11-14T07:11:50.347Z,5.47
2022-11-14T07:13:54.693Z,6.20
2022-11-14T07:15:57.357Z,6.25
2022-11-14T07:18:01.338Z,5.93
2022-11-14T07:20:04.303Z,5.38
2022-11-14T07:22:06.910Z,4.45
2022-11-14T07:24:09.619Z,5.00
2022-11-14T07:26:13.012Z,4.90
2022-11-14T07:28:15.679Z,5.25
2022-11-14T07:30:18.371Z,6.28
2022-11-14T07:32:21.003Z,6.40
2022-11-14T07:34:24.988Z,5.70
2022-11-14T07:36:27.662Z,5.47
2022-11-14T07:38:32.145Z,6.15
2022-11-14T07:40:35.055Z,5.72
2022-11-14T07:42:37.731Z,6.90
2022-11-14T07:44:40.360Z,6.75
2022-11-14T07:46:42.951Z,6.55
2022-11-14T07:48:46.377Z,6.63
2022-11-14T07:50:50.411Z,5.72
2022-11-14T07:52:53.713Z,6.55
2022-11-14T07:54:56.367Z,7.38
2022-11-14T07:56:58.963Z,5.82
2022-11-14T07:59:01.606Z,7.82
2022-11-14T08:01:06.513Z,5.85
2022-11-14T08:03:11.926Z,6.85
2022-11-14T08:05:14.617Z,8.18
2022-11-14T08:07:18.701Z,5.85
2022-11-14T08:09:23.053Z,5.78
2022-11-14T08:11:39.642Z,6.25
2022-11-14T08:13:42.296Z,6.45
2022-11-14T08:15:44.939Z,7.60
2022-11-14T08:17:47.567Z,5.95
2022-11-14T08:19:50.270Z,7.68
2022-11-14T08:21:52.938Z,8.05
2022-11-14T08:23:56.956Z,6.93
2022-11-14T08:25:59.903Z,7.45
2022-11-14T08:28:02.587Z,5.68
2022-11-14T08:30:06.031Z,6.40
2022-11-14T08:32:08.652Z,5.82
2022-11-14T08:34:11.313Z,6.78
2022-11-14T08:36:14.051Z,7.57
2022-11-14T08:38:16.720Z,6.70
2022-11-14T08:40:20.834Z,6.78
2022-11-14T08:42:23.513Z,7.40
2022-11-14T08:44:26.138Z,6.60
2022-11-14T08:46:28.746Z,6.13
2022-11-14T08:48:32.789Z,6.65
2022-11-14T08:50:35.697Z,4.63
2022-11-14T08:52:38.380Z,5.63
2022-11-14T08:54:41.034Z,5.28
2022-11-14T08:56:45.042Z,5.68
2022-11-14T08:58:47.723Z,4.90
2022-11-14T09:00:51.931Z,3.42
2022-11-14T09:02:54.627Z,3.60
2022-11-14T09:04:57.392Z,2.95
2022-11-14T09:07:00.181Z,2.72
2022-11-14T09:09:02.861Z,2.33
2022-11-14T09:11:09.254Z,3.00
2022-11-14T09:13:14.066Z,3.15
2022-11-14T09:15:16.864Z,3.20
2022-11-14T09:17:19.543Z,3.40
2022-11-14T09:19:22.299Z,2.60
2022-11-14T09:21:24.996Z,2.90
2022-11-14T09:23:28.022Z,2.70
2022-11-14T09:25:33.365Z,2.78
2022-11-14T09:27:36.055Z,2.40
2022-11-14T09:29:40.048Z,2.00
2022-11-14T09:31:42.716Z,2.78
2022-11-14T09:33:45.317Z,2.80
2022-11-14T09:35:48.015Z,2.63
2022-11-14T09:37:50.656Z,3.10
2022-11-14T09:39:53.366Z,2.47
2022-11-14T09:42:15.841Z,2.70
2022-11-14T09:44:50.026Z,3.83
2022-11-14T09:46:57.591Z,5.10
2022-11-14T09:49:00.556Z,3.70
2022-11-14T09:51:10.479Z,3.40
2022-11-14T09:53:21.271Z,3.67
2022-11-14T09:55:33.596Z,3.60
2022-11-14T09:57:38.045Z,3.55
2022-11-14T09:59:40.738Z,3.50
2022-11-14T10:01:52.643Z,3.10
2022-11-14T10:04:00.939Z,3.55
2022-11-14T10:06:18.803Z,3.20
2022-11-14T10:08:36.421Z,4.45
2022-11-14T10:10:52.098Z,3.78
2022-11-14T10:13:04.829Z,4.05
2022-11-14T10:17:42.578Z,3.08
2022-11-14T10:19:52.805Z,3.08
2022-11-14T10:22:10.427Z,3.65
2022-11-14T10:24:29.352Z,3.30
2022-11-14T10:26:34.652Z,2.90
2022-11-14T10:28:47.847Z,3.08
2022-11-14T10:31:02.247Z,3.33
2022-11-14T10:33:18.702Z,3.38
2022-11-14T10:35:24.751Z,3.10
2022-11-14T10:37:33.270Z,3.17
2022-11-14T10:39:42.224Z,3.75
2022-11-14T10:42:06.245Z,2.58
2022-11-14T10:44:14.289Z,2.38
2022-11-14T10:46:21.876Z,2.28
2022-11-14T10:48:32.340Z,2.78
2022-11-14T10:50:42.312Z,2.35
2022-11-14T10:52:46.629Z,2.35
2022-11-14T10:54:53.095Z,2.58
2022-11-14T10:56:56.429Z,1.63
2022-11-14T10:59:00.603Z,2.05
2022-11-14T11:01:34.343Z,2.40
2022-11-14T11:03:45.288Z,2.22
2022-11-14T11:05:50.592Z,2.20
2022-11-14T11:08:36.603Z,2.33
2022-11-14T11:10:57.009Z,2.03
2022-11-14T11:12:59.729Z,2.22
2022-11-14T11:15:18.516Z,1.70
2022-11-14T11:17:26.847Z,1.67
2022-11-14T11:19:35.560Z,1.55
2022-11-14T11:21:49.453Z,1.58
2022-11-14T11:23:53.955Z,1.25
2022-11-14T11:26:05.517Z,1.17
2022-11-14T11:28:13.538Z,1.58
2022-11-14T11:30:23.015Z,1.55
2022-11-14T11:32:26.926Z,1.60
2022-11-14T11:34:33.258Z,1.63
2022-11-14T11:36:41.710Z,1.40
2022-11-14T11:38:45.406Z,1.48
2022-11-14T11:40:52.436Z,1.27
2022-11-14T11:45:24.958Z,1.50
2022-11-14T11:47:30.647Z,1.33
2022-11-14T11:49:41.491Z,1.20
2022-11-14T11:51:46.857Z,1.23
2022-11-14T11:53:58.330Z,1.40
2022-11-14T11:56:06.268Z,1.20
2022-11-14T11:58:18.847Z,1.70
2022-11-14T12:02:28.030Z,1.52
2022-11-14T12:04:31.442Z,1.30
2022-11-14T12:06:42.643Z,1.30
2022-11-14T12:09:06.935Z,1.23
2022-11-14T12:11:15.144Z,1.50
2022-11-14T12:13:42.145Z,1.30
2022-11-14T12:15:51.570Z,1.52
2022-11-14T12:18:15.658Z,1.20
2022-11-14T12:20:48.621Z,1.00
2022-11-14T12:23:16.704Z,1.48
2022-11-14T12:25:36.296Z,1.50
2022-11-14T12:27:52.697Z,1.50
2022-11-14T12:30:10.478Z,1.50
2022-11-14T12:32:16.555Z,1.38
2022-11-14T12:34:27.733Z,1.40
2022-11-14T12:36:32.983Z,1.30
2022-11-14T12:38:43.223Z,0.82
2022-11-14T12:40:53.921Z,1.40
2022-11-14T12:42:58.562Z,1.30
2022-11-14T12:45:01.597Z,1.90
2022-11-14T12:47:16.569Z,1.40
2022-11-14T12:49:39.682Z,1.73
2022-11-14T12:51:52.497Z,1.75
2022-11-14T12:53:56.495Z,1.50
2022-11-14T12:56:15.256Z,1.50
2022-11-14T12:58:28.004Z,1.70
2022-11-14T13:00:31.421Z,1.33
2022-11-14T13:03:03.604Z,1.70
2022-11-14T13:05:40.359Z,1.50
2022-11-14T13:07:51.799Z,1.58
2022-11-14T13:10:15.525Z,1.60
2022-11-14T13:12:46.853Z,1.50
2022-11-14T13:15:08.615Z,1.73
2022-11-14T13:17:41.440Z,1.30
2022-11-14T13:20:04.759Z,1.20
2022-11-14T13:22:41.015Z,1.30
2022-11-14T13:25:17.479Z,1.60
2022-11-14T13:27:52.182Z,1.40
2022-11-14T13:29:52.181Z,1.55
2022-11-14T13:31:54.868Z,1.40
2022-11-14T13:34:00.156Z,1.40
2022-11-14T13:36:05.688Z,1.30
2022-11-14T13:38:42.574Z,1.40
2022-11-14T13:40:53.677Z,1.40
2022-11-14T13:43:06.717Z,1.30
2022-11-14T13:45:24.907Z,1.60
2022-11-14T13:47:43.567Z,1.20
2022-11-14T13:50:00.202Z,1.40
2022-11-14T13:52:03.178Z,1.40
2022-11-14T13:54:17.141Z,1.40
2022-11-14T13:56:33.067Z,1.73
2022-11-14T13:59:03.131Z,1.52
2022-11-14T14:01:21.062Z,1.40
2022-11-14T14:03:37.116Z,1.58
2022-11-14T14:06:04.001Z,1.50
2022-11-14T14:08:21.727Z,1.60
2022-11-14T14:10:33.909Z,1.40
2022-11-14T14:12:58.897Z,1.48
2022-11-14T14:15:16.649Z,1.85
2022-11-14T14:17:28.282Z,1.65
2022-11-14T14:19:42.092Z,1.67
2022-11-14T14:21:49.159Z,1.60
2022-11-14T14:24:00.195Z,1.60
2022-11-14T14:26:16.613Z,1.45
2022-11-14T14:28:26.295Z,1.60
2022-11-14T14:30:30.398Z,1.67
2022-11-14T14:32:33.421Z,1.48
2022-11-14T14:34:36.037Z,1.70
2022-11-14T14:36:49.162Z,1.73
2022-11-14T14:38:52.305Z,1.70
2022-11-14T14:40:56.505Z,1.48
2022-11-14T14:42:59.931Z,1.42
2022-11-14T14:45:04.381Z,1.58
2022-11-14T14:47:18.268Z,1.60
2022-11-14T14:49:24.192Z,1.90
2022-11-14T14:51:34.670Z,1.67
2022-11-14T14:53:37.462Z,1.77
2022-11-14T14:55:40.181Z,1.58
2022-11-14T14:57:42.807Z,2.10
2022-11-14T14:59:45.441Z,1.67
2022-11-14T15:01:49.109Z,1.90
2022-11-14T15:03:58.052Z,1.67
2022-11-14T15:06:02.213Z,2.03
2022-11-14T15:08:05.330Z,1.75
2022-11-14T15:10:08.880Z,1.67
2022-11-14T15:12:11.912Z,2.58
2022-11-14T15:14:17.169Z,2.22
2022-11-14T15:16:20.895Z,1.70
2022-11-14T15:18:27.080Z,1.58
2022-11-14T15:20:31.120Z,2.03
2022-11-14T15:22:33.761Z,1.60
2022-11-14T15:24:36.382Z,1.75
2022-11-14T15:26:39.591Z,1.70
2022-11-14T15:28:42.205Z,1.95
2022-11-14T15:30:58.967Z,1.90
2022-11-14T15:33:03.486Z,1.80
2022-11-14T15:35:10.372Z,1.83
2022-11-14T15:37:24.205Z,1.70
2022-11-14T15:39:29.195Z,1.83
2022-11-14T15:41:32.712Z,1.50
2022-11-14T15:43:49.269Z,1.42
2022-11-14T15:45:52.005Z,1.70
2022-11-14T15:48:00.118Z,1.80
2022-11-14T15:50:05.036Z,1.90
2022-11-14T15:52:21.399Z,1.60
2022-11-14T15:54:29.979Z,1.80
2022-11-14T15:56:32.563Z,1.70
2022-11-14T15:58:35.171Z,2.10
2022-11-14T16:00:41.652Z,1.95
2022-11-14T16:02:47.950Z,1.95
2022-11-14T16:04:52.548Z,1.83
2022-11-14T16:06:55.242Z,2.17
2022-11-14T16:08:57.866Z,1.92
2022-11-14T16:11:01.854Z,2.20
2022-11-14T16:13:04.616Z,2.90
2022-11-14T16:15:08.020Z,2.88
2022-11-14T16:17:14.317Z,2.50
2022-11-14T16:19:17.984Z,2.47
2022-11-14T16:21:20.646Z,2.55
2022-11-14T16:23:23.314Z,2.80
2022-11-14T16:25:27.438Z,2.95
2022-11-14T16:27:31.391Z,2.97
2022-11-14T16:29:34.159Z,2.88
2022-11-14T16:31:37.084Z,2.90
2022-11-14T16:33:39.839Z,3.33
2022-11-14T16:35:42.501Z,2.72
2022-11-14T16:37:45.896Z,2.53
2022-11-14T16:39:48.523Z,2.50
2022-11-14T16:41:51.185Z,2.42
2022-11-14T16:43:57.387Z,2.00
2022-11-14T16:46:04.869Z,2.30
2022-11-14T16:48:07.558Z,2.97
2022-11-14T16:50:11.051Z,2.53
2022-11-14T16:52:15.177Z,2.28
2022-11-14T16:54:18.341Z,2.42
2022-11-14T16:56:20.954Z,2.58
2022-11-14T16:58:23.615Z,2.22
2022-11-14T17:00:28.576Z,2.00
2022-11-14T17:02:31.182Z,2.40
2022-11-14T17:04:34.063Z,2.60
2022-11-14T17:06:36.685Z,2.60
2022-11-14T17:08:39.381Z,2.50
2022-11-14T17:10:42.299Z,2.38
2022-11-14T17:12:44.964Z,2.92
2022-11-14T17:14:47.570Z,2.10
2022-11-14T17:16:51.567Z,2.65
2022-11-14T17:18:54.826Z,2.95
2022-11-14T17:20:57.522Z,2.47
2022-11-14T17:23:00.199Z,2.67
2022-11-14T17:25:02.870Z,2.60
2022-11-14T17:27:05.599Z,2.60
2022-11-14T17:29:08.227Z,2.75
2022-11-14T17:31:11.522Z,2.90
2022-11-14T17:33:15.468Z,3.00
2022-11-14T17:35:18.190Z,2.92
2022-11-14T17:37:20.862Z,2.97
2022-11-14T17:39:23.542Z,2.67
2022-11-14T17:41:26.355Z,2.33
2022-11-14T17:43:33.111Z,2.88
2022-11-14T17:45:41.308Z,2.90
2022-11-14T17:47:44.095Z,3.03
2022-11-14T17:49:48.072Z,3.10
2022-11-14T17:51:50.672Z,3.33
2022-11-14T17:53:53.410Z,2.70
2022-11-14T17:55:57.711Z,2.80
2022-11-14T17:58:00.334Z,2.63
2022-11-14T18:00:03.939Z,2.97
2022-11-14T18:02:06.645Z,2.95
2022-11-14T18:04:09.581Z,2.90
2022-11-14T18:06:15.186Z,2.75
2022-11-14T18:08:18.349Z,3.10
2022-11-14T18:10:20.995Z,2.78
2022-11-14T18:12:23.592Z,2.92
2022-11-14T18:14:26.350Z,2.83
2022-11-14T18:16:50.454Z,3.28
2022-11-14T18:18:52.327Z,3.20
2022-11-14T18:20:54.951Z,2.70
2022-11-14T18:22:58.870Z,2.75
2022-11-14T18:25:07.405Z,2.78
2022-11-14T18:27:10.548Z,2.47
2022-11-14T18:29:15.487Z,2.97
2022-11-14T18:31:18.099Z,2.83
2022-11-14T18:33:20.719Z,2.40
2022-11-14T18:35:23.588Z,2.60
2022-11-14T18:37:26.275Z,2.58
2022-11-14T18:39:30.889Z,2.30
2022-11-14T18:41:33.499Z,2.70
2022-11-14T18:43:36.211Z,2.90
2022-11-14T18:45:38.791Z,2.53
2022-11-14T18:47:41.429Z,2.42
2022-11-14T18:49:44.892Z,2.00
2022-11-14T18:51:47.548Z,2.55
2022-11-14T18:53:51.294Z,2.53
2022-11-14T18:55:55.583Z,2.45
2022-11-14T18:57:58.253Z,2.92
2022-11-14T19:00:00.941Z,2.33
2022-11-14T19:02:03.686Z,2.78
2022-11-14T19:04:07.768Z,2.53
2022-11-14T19:06:12.664Z,2.45
2022-11-14T19:08:15.253Z,2.58
2022-11-14T19:10:17.946Z,2.53
2022-11-14T19:12:23.488Z,2.67
2022-11-14T19:14:26.139Z,2.80
2022-11-14T19:16:29.090Z,3.50
2022-11-14T19:18:32.710Z,3.35
2022-11-14T19:20:35.386Z,3.47
2022-11-14T19:22:38.005Z,3.00
2022-11-14T19:24:42.914Z,3.10
2022-11-14T19:26:45.822Z,3.25
2022-11-14T19:28:50.359Z,2.72
2022-11-14T19:30:53.043Z,2.85
2022-11-14T19:32:55.708Z,2.60
2022-11-14T19:34:58.362Z,2.42
2022-11-14T19:37:01.406Z,3.10
2022-11-14T19:39:04.591Z,3.63
2022-11-14T19:41:08.072Z,3.40
2022-11-14T19:43:12.340Z,3.65
2022-11-14T19:45:16.463Z,3.75
2022-11-14T19:47:19.295Z,3.50
2022-11-14T19:49:21.945Z,3.72
2022-11-14T19:51:24.718Z,3.80
2022-11-14T19:53:27.572Z,3.10
2022-11-14T19:55:31.120Z,3.80
2022-11-14T19:57:33.779Z,3.65
2022-11-14T19:59:36.389Z,3.50
2022-11-14T20:01:41.920Z,3.35
2022-11-14T20:03:44.656Z,3.42
2022-11-14T20:05:47.420Z,3.85
2022-11-14T20:07:50.183Z,3.08
2022-11-14T20:09:52.921Z,2.90
2022-11-14T20:11:55.674Z,3.58
2022-11-14T20:13:59.527Z,4.57
2022-11-14T20:16:02.282Z,4.28
2022-11-14T20:18:06.532Z,3.85
2022-11-14T20:20:10.213Z,3.72
2022-11-14T20:22:12.990Z,3.30
2022-11-14T20:24:21.301Z,3.35
2022-11-14T20:26:24.428Z,4.10
2022-11-14T20:28:27.682Z,3.75
2022-11-14T20:30:30.494Z,3.92
2022-11-14T20:32:33.207Z,4.15
2022-11-14T20:34:37.316Z,4.43
2022-11-14T20:37:09.420Z,4.78
2022-11-14T20:39:02.934Z,5.00
2022-11-14T20:41:05.899Z,4.80
2022-11-14T20:43:09.581Z,4.55
2022-11-14T20:45:12.492Z,4.40
2022-11-14T20:47:15.206Z,4.60
2022-11-14T20:49:17.992Z,5.25
2022-11-14T20:51:23.586Z,4.60
2022-11-14T20:53:26.349Z,4.70
2022-11-14T20:55:29.163Z,4.03
2022-11-14T20:57:32.097Z,3.92
2022-11-14T20:59:34.905Z,3.75
2022-11-14T21:01:43.262Z,3.63
2022-11-14T21:03:46.682Z,3.95
2022-11-14T21:05:49.551Z,3.47
2022-11-14T21:07:53.588Z,3.72
2022-11-14T21:10:10.077Z,3.78
2022-11-14T21:12:12.700Z,3.65
2022-11-14T21:14:15.651Z,4.03
2022-11-14T21:16:20.056Z,3.58
2022-11-14T21:18:22.904Z,3.65
2022-11-14T21:20:25.611Z,3.95
2022-11-14T21:22:28.250Z,3.67
2022-11-14T21:24:36.933Z,3.85
2022-11-14T21:26:42.192Z,3.55
2022-11-14T21:28:46.338Z,3.45
2022-11-14T21:30:48.978Z,3.15
2022-11-14T21:32:54.150Z,3.45
2022-11-14T21:34:56.772Z,2.60
2022-11-14T21:36:59.419Z,2.72
2022-11-14T21:39:02.159Z,2.30
2022-11-14T21:41:06.867Z,2.65
2022-11-14T21:43:09.534Z,2.28
2022-11-14T21:45:12.300Z,2.45
2022-11-14T21:47:14.924Z,3.03
2022-11-14T21:49:17.684Z,2.50
2022-11-14T21:51:22.025Z,2.97
2022-11-14T21:53:24.702Z,2.40
2022-11-14T21:55:27.311Z,2.65
2022-11-14T21:57:31.312Z,3.17
2022-11-14T21:59:33.953Z,3.05
2022-11-14T22:01:54.015Z,2.70
2022-11-14T22:04:19.367Z,2.95
2022-11-14T22:06:22.809Z,3.03
2022-11-14T22:08:25.531Z,2.70
2022-11-14T22:10:28.536Z,2.63
2022-11-14T22:12:35.192Z,2.85
2022-11-14T22:16:41.011Z,2.75
2022-11-14T22:18:44.735Z,2.97
2022-11-14T22:20:47.835Z,2.92
2022-11-14T22:22:54.862Z,3.95
2022-11-14T22:24:57.602Z,3.97
2022-11-14T22:27:00.220Z,4.13
2022-11-14T22:29:04.201Z,3.90
2022-11-14T22:31:10.174Z,4.40
2022-11-14T22:33:12.839Z,4.07
2022-11-14T22:35:15.512Z,4.20
2022-11-14T22:37:18.131Z,4.07
2022-11-14T22:39:20.746Z,4.38
2022-11-14T22:41:31.486Z,3.90
2022-11-14T22:43:35.999Z,3.95
2022-11-14T22:45:40.036Z,3.90
2022-11-14T22:47:42.654Z,4.05
2022-11-14T22:49:45.729Z,3.50
2022-11-14T22:51:48.439Z,3.63
2022-11-14T22:53:53.033Z,3.90
2022-11-14T22:55:55.675Z,3.90
2022-11-14T22:57:59.717Z,3.88
2022-11-14T23:00:02.371Z,4.13
2022-11-14T23:02:06.324Z,3.35
2022-11-14T23:04:10.514Z,3.40
2022-11-14T23:06:14.933Z,3.30
2022-11-14T23:08:20.441Z,3.10
2022-11-14T23:10:23.087Z,3.15
2022-11-14T23:12:25.725Z,2.95
2022-11-14T23:14:28.369Z,3.13
2022-11-14T23:16:33.968Z,3.22
2022-11-14T23:18:38.320Z,3.13
2022-11-14T23:20:40.961Z,3.55
2022-11-14T23:22:43.542Z,3.88
2022-11-14T23:24:46.192Z,2.88
2022-11-14T23:26:48.832Z,3.20
2022-11-14T23:28:51.646Z,3.33
2022-11-14T23:30:56.844Z,3.00
2022-11-14T23:32:59.487Z,3.28
2022-11-14T23:35:03.527Z,3.03
2022-11-14T23:37:06.141Z,3.00
2022-11-14T23:39:08.749Z,3.08
2022-11-14T23:41:17.891Z,3.13
2022-11-14T23:43:20.757Z,3.10
2022-11-14T23:45:23.397Z,3.33
2022-11-14T23:47:26.033Z,3.00
2022-11-14T23:49:28.833Z,3.30
2022-11-14T23:51:32.909Z,3.38
2022-11-14T23:53:35.529Z,3.30
2022-11-14T23:55:38.453Z,3.35
2022-11-14T23:57:41.074Z,2.95
2022-11-14T23:59:43.679Z,3.38
